Time;durP1;ratioP1;P1;durP2;ratioP2;P2;SDS_P1;SDS_P2;PMS_P1;PMS_P2;Temp;Humidity;BMP_temperature;BMP_pressure;BME280_temperature;BME280_humidity;BME280_pressure;Samples;Min_cycle;Max_cycle;Signal;HPM_P1;HPM_P2
2021/08/04 00:02:12;;;;;;;;;;;;;;;12.84;90.62;99120.50;5034599;28;19921;-61
2021/08/04 00:04:37;;;;;;;;;;;;;;;12.90;90.69;99124.84;5034870;28;19928;-60
2021/08/04 00:07:02;;;;;;;;;;;;;;;12.92;90.85;99128.09;5034564;28;19928;-61
2021/08/04 00:09:28;;;;;;;;;;;;;;;12.88;90.29;99129.66;5035221;28;20326;-60
2021/08/04 00:11:54;;;;;;;;;;;;;;;12.90;90.60;99127.53;5034619;28;19989;-65
2021/08/04 00:14:19;;;;;;;;;;;;;;;12.95;90.41;99130.25;5034861;28;19924;-61
2021/08/04 00:16:44;;;;;;;;;;;;;;;12.97;90.61;99128.09;5034272;28;19921;-61
2021/08/04 00:19:09;;;;;;;;;;;;;;;12.99;90.45;99130.53;5033583;28;20366;-61
2021/08/04 00:21:35;;;;;;;;;;;;;;;13.01;90.57;99129.22;5034452;28;19922;-60
2021/08/04 00:24:00;;;;;;;;;;;;;;;12.97;90.70;99130.78;5034892;28;19923;-60
2021/08/04 00:26:25;;;;;;;;;;;;;;;13.04;91.02;99126.00;5034372;28;20268;-61
2021/08/04 00:28:50;;;;;;;;;;;;;;;12.99;90.76;99130.53;5033377;28;20015;-61
2021/08/04 00:31:16;;;;;;;;;;;;;;;13.00;91.07;99132.97;5034254;28;20368;-60
2021/08/04 00:33:41;;;;;;;;;;;;;;;13.04;91.29;99136.75;5034877;28;20397;-60
2021/08/04 00:36:06;;;;;;;;;;;;;;;13.05;91.03;99130.28;5033994;28;19948;-61
2021/08/04 00:38:31;;;;;;;;;;;;;;;12.96;90.76;99121.13;5034548;28;19917;-61
2021/08/04 00:40:57;;;;;;;;;;;;;;;12.91;91.37;99132.66;5034002;28;20012;-61
2021/08/04 00:43:22;;;;;;;;;;;;;;;12.94;91.52;99125.94;5034545;28;19917;-61
2021/08/04 00:45:47;;;;;;;;;;;;;;;12.99;91.42;99130.53;5033938;28;19956;-61
2021/08/04 00:48:12;;;;;;;;;;;;;;;12.98;91.45;99127.06;5034442;28;20402;-61
2021/08/04 00:50:38;;;;;;;;;;;;;;;13.01;92.08;99131.09;5031610;28;20000;-61
2021/08/04 00:53:21;;;;;;;;;;;;;;;12.98;92.27;99128.91;5034102;28;19928;-61
2021/08/04 00:55:47;;;;;;;;;;;;;;;13.01;91.67;99123.03;5033804;28;19960;-61
2021/08/04 00:58:12;;;;;;;;;;;;;;;12.92;92.18;99120.00;5033647;28;20363;-61
2021/08/04 01:00:41;;;;;;;;;;;;;;;12.95;92.16;99119.47;5029204;28;20007;-60
2021/08/04 01:03:08;;;;;;;;;;;;;;;12.90;91.84;99117.59;5029425;28;19925;-61
2021/08/04 01:05:36;;;;;;;;;;;;;;;12.90;92.27;99116.75;5013723;28;19929;-60
2021/08/04 01:08:03;;;;;;;;;;;;;;;12.86;92.24;99121.06;5013982;28;19925;-61
2021/08/04 01:10:29;;;;;;;;;;;;;;;12.82;91.78;99122.63;5028508;28;19926;-60
2021/08/04 01:13:00;;;;;;;;;;;;;;;12.70;91.95;99117.44;5029308;28;20283;-60
2021/08/04 01:15:25;;;;;;;;;;;;;;;12.61;92.02;99114.44;5029048;28;19925;-60
2021/08/04 01:17:50;;;;;;;;;;;;;;;12.63;92.11;99109.63;5029497;28;20446;-60
2021/08/04 01:20:22;;;;;;;;;;;;;;;12.54;92.18;99110.38;5031128;28;19955;-61
2021/08/04 01:22:47;;;;;;;;;;;;;;;12.48;92.56;99112.19;5032492;28;20011;-61
2021/08/04 01:25:13;;;;;;;;;;;;;;;12.48;92.71;99114.88;5032753;28;19967;-61
2021/08/04 01:27:40;;;;;;;;;;;;;;;12.42;92.31;99115.91;5033291;28;19944;-61
2021/08/04 01:30:05;;;;;;;;;;;;;;;12.32;92.55;99107.78;5031219;28;19917;-60
2021/08/04 01:32:31;;;;;;;;;;;;;;;12.21;93.13;99117.63;5012309;28;19925;-61
2021/08/04 01:34:56;;;;;;;;;;;;;;;12.13;93.56;99108.16;5013403;28;19917;-61
2021/08/04 01:37:21;;;;;;;;;;;;;;;12.06;93.82;99108.38;5032339;28;19929;-60
2021/08/04 01:39:46;;;;;;;;;;;;;;;11.90;94.25;99109.28;5031962;28;19928;-60
2021/08/04 01:42:12;;;;;;;;;;;;;;;11.82;95.17;99102.47;5013722;28;19921;-61
2021/08/04 01:44:37;;;;;;;;;;;;;;;11.80;95.17;99101.09;5013720;28;20400;-61
2021/08/04 01:47:02;;;;;;;;;;;;;;;11.86;95.00;99098.25;5013086;28;19922;-60
2021/08/04 01:49:27;;;;;;;;;;;;;;;11.84;94.77;99099.53;5028708;28;20360;-61
2021/08/04 01:51:53;;;;;;;;;;;;;;;11.85;94.65;99091.19;5028359;28;19921;-61
2021/08/04 01:54:18;;;;;;;;;;;;;;;11.87;94.13;99093.69;5031865;28;19928;-60
2021/08/04 01:56:44;;;;;;;;;;;;;;;11.87;93.94;99093.69;5032723;28;20020;-61
2021/08/04 01:59:09;;;;;;;;;;;;;;;11.80;94.12;99093.84;5033064;28;20363;-60
2021/08/04 02:01:37;;;;;;;;;;;;;;;11.74;94.10;99089.50;5032419;28;19921;-61
2021/08/04 02:04:03;;;;;;;;;;;;;;;11.64;94.48;99086.72;5033014;28;20330;-60
2021/08/04 02:06:40;;;;;;;;;;;;;;;11.61;94.69;99084.53;5032656;28;19921;-60
2021/08/04 02:09:24;;;;;;;;;;;;;;;11.65;94.82;99088.31;5032924;28;19979;-61
2021/08/04 02:11:50;;;;;;;;;;;;;;;11.64;94.46;99090.19;5032729;28;20295;-60
2021/08/04 02:14:17;;;;;;;;;;;;;;;11.62;94.34;99086.16;5032933;28;19917;-60
2021/08/04 02:16:44;;;;;;;;;;;;;;;11.67;94.41;99088.88;5031391;28;20020;-61
2021/08/04 02:19:15;;;;;;;;;;;;;;;11.62;94.34;99086.16;5033027;28;19913;-61
2021/08/04 02:21:42;;;;;;;;;;;;;;;11.65;94.50;99091.00;5032536;28;19928;-60
2021/08/04 02:24:07;;;;;;;;;;;;;;;11.73;94.34;99093.25;5031605;28;19970;-60
2021/08/04 02:26:32;;;;;;;;;;;;;;;11.70;94.31;99093.72;5032498;28;20016;-60
2021/08/04 02:28:57;;;;;;;;;;;;;;;11.68;94.11;99095.06;5032899;28;20276;-60
2021/08/04 02:31:23;;;;;;;;;;;;;;;11.68;94.28;99093.19;5031117;28;20394;-61
2021/08/04 02:33:48;;;;;;;;;;;;;;;11.65;94.01;99091.00;5031391;28;20015;-61
2021/08/04 02:36:13;;;;;;;;;;;;;;;11.55;94.28;99091.69;5032311;28;19921;-60
2021/08/04 02:38:39;;;;;;;;;;;;;;;11.57;94.18;99099.50;5031748;28;19917;-60
2021/08/04 02:41:04;;;;;;;;;;;;;;;11.54;94.18;99100.03;5031288;28;20002;-60
2021/08/04 02:43:29;;;;;;;;;;;;;;;11.45;94.04;99100.44;5032835;28;19917;-60
2021/08/04 02:45:54;;;;;;;;;;;;;;;11.38;93.95;99093.66;5032116;28;19928;-61
2021/08/04 02:48:20;;;;;;;;;;;;;;;11.32;94.09;99091.97;5031459;28;19917;-61
2021/08/04 02:50:48;;;;;;;;;;;;;;;11.27;94.28;99100.78;5032368;28;19941;-61
2021/08/04 02:53:17;;;;;;;;;;;;;;;11.30;94.42;99089.53;5031262;28;20354;-61
2021/08/04 02:55:42;;;;;;;;;;;;;;;11.40;94.21;99094.22;5032388;28;19921;-61
2021/08/04 02:58:08;;;;;;;;;;;;;;;11.33;93.82;99094.44;5032593;28;19917;-61
2021/08/04 03:00:33;;;;;;;;;;;;;;;11.31;93.66;99101.09;5032240;28;20422;-60
2021/08/04 03:02:58;;;;;;;;;;;;;;;11.35;94.14;99103.00;5032331;28;19924;-61
2021/08/04 03:05:23;;;;;;;;;;;;;;;11.34;94.85;99101.41;5031743;28;19960;-60
2021/08/04 03:07:49;;;;;;;;;;;;;;;11.29;95.09;99103.22;5032576;28;19913;-61
2021/08/04 03:10:14;;;;;;;;;;;;;;;11.25;95.56;99102.91;5032291;28;20243;-61
2021/08/04 03:12:39;;;;;;;;;;;;;;;11.22;96.26;99106.09;5032652;28;20365;-60
2021/08/04 03:15:05;;;;;;;;;;;;;;;11.28;96.56;99113.13;5035592;28;20026;-60
2021/08/04 03:17:30;;;;;;;;;;;;;;;11.32;96.73;99106.22;5036095;28;19917;-60
2021/08/04 03:19:55;;;;;;;;;;;;;;;11.33;96.78;99115.06;5035846;28;19918;-60
2021/08/04 03:22:20;;;;;;;;;;;;;;;11.39;97.15;99114.88;5035706;28;19928;-60
2021/08/04 03:24:46;;;;;;;;;;;;;;;11.39;97.18;99112.19;5035889;28;19964;-60
2021/08/04 03:27:11;;;;;;;;;;;;;;;11.35;96.79;99119.13;5034073;28;19921;-60
2021/08/04 03:29:36;;;;;;;;;;;;;;;11.34;96.93;99116.69;5035756;28;20295;-60
2021/08/04 03:32:04;;;;;;;;;;;;;;;11.31;96.79;99118.00;5035106;28;20011;-61
2021/08/04 03:34:29;;;;;;;;;;;;;;;11.30;97.10;99121.75;5034896;28;19924;-60
2021/08/04 03:36:54;;;;;;;;;;;;;;;11.22;96.96;99120.31;5035158;28;20020;-60
2021/08/04 03:39:19;;;;;;;;;;;;;;;11.25;97.07;99119.00;5035741;28;20279;-60
2021/08/04 03:41:45;;;;;;;;;;;;;;;11.24;97.03;99122.75;5033780;28;19927;-60
2021/08/04 03:44:10;;;;;;;;;;;;;;;11.26;97.47;99115.28;5035566;28;20035;-60
2021/08/04 03:46:35;;;;;;;;;;;;;;;11.27;97.42;99127.59;5035074;28;20379;-60
2021/08/04 03:49:00;;;;;;;;;;;;;;;11.31;97.53;99118.00;5035524;28;19921;-60
2021/08/04 03:51:25;;;;;;;;;;;;;;;11.38;97.55;99118.63;5035047;28;19928;-60
2021/08/04 03:53:51;;;;;;;;;;;;;;;11.38;97.39;99113.28;5035463;28;19917;-61
2021/08/04 03:56:16;;;;;;;;;;;;;;;11.37;97.78;99105.47;5034895;28;19921;-61
2021/08/04 03:58:41;;;;;;;;;;;;;;;11.38;97.39;99115.94;5033436;28;19962;-60
2021/08/04 04:01:07;;;;;;;;;;;;;;;11.47;97.30;99116.31;5035093;28;19925;-61
2021/08/04 04:03:32;;;;;;;;;;;;;;;11.38;96.75;99118.63;5034874;28;20012;-61
2021/08/04 04:05:59;;;;;;;;;;;;;;;11.31;96.56;99109.97;5034219;28;20329;-60
2021/08/04 04:08:24;;;;;;;;;;;;;;;11.38;96.54;99113.28;5035377;28;20326;-61
2021/08/04 04:10:49;;;;;;;;;;;;;;;11.37;96.02;99117.00;5034900;28;19922;-61
2021/08/04 04:13:15;;;;;;;;;;;;;;;11.41;95.65;99118.13;5035080;28;19917;-60
2021/08/04 04:15:40;;;;;;;;;;;;;;;11.41;95.13;99117.31;5034593;28;20259;-61
2021/08/04 04:18:05;;;;;;;;;;;;;;;11.45;95.22;99123.78;5034986;28;19913;-61
2021/08/04 04:20:31;;;;;;;;;;;;;;;11.50;94.90;99131.91;5034364;28;19987;-60
2021/08/04 04:22:56;;;;;;;;;;;;;;;11.41;94.83;99123.50;5035162;28;19924;-60
2021/08/04 04:25:21;;;;;;;;;;;;;;;11.63;94.75;99125.34;5033125;28;20382;-61
2021/08/04 04:27:46;;;;;;;;;;;;;;;11.92;93.00;99127.84;5035270;28;19921;-61
2021/08/04 04:30:12;;;;;;;;;;;;;;;12.18;91.21;99135.06;5034158;28;19917;-60
2021/08/04 04:32:38;;;;;;;;;;;;;;;12.63;89.66;99133.81;5034643;28;19971;-60
2021/08/04 04:35:03;;;;;;;;;;;;;;;12.85;87.97;99138.25;5033947;28;19924;-61
2021/08/04 04:37:28;;;;;;;;;;;;;;;13.14;86.54;99133.31;5034755;28;19913;-61
2021/08/04 04:39:54;;;;;;;;;;;;;;;13.19;86.47;99151.38;5034443;28;19917;-60
2021/08/04 04:42:20;;;;;;;;;;;;;;;13.42;85.77;99142.88;5034282;28;19922;-61
2021/08/04 04:44:45;;;;;;;;;;;;;;;13.88;83.18;99147.59;5034808;28;19923;-61
2021/08/04 04:47:10;;;;;;;;;;;;;;;14.28;81.25;99148.75;5033864;28;19995;-61
2021/08/04 04:49:35;;;;;;;;;;;;;;;14.71;79.59;99149.34;5034043;28;19917;-61
2021/08/04 04:52:01;;;;;;;;;;;;;;;15.04;78.09;99145.22;5033982;28;19971;-61
2021/08/04 04:54:26;;;;;;;;;;;;;;;15.49;76.68;99148.84;5034338;28;20008;-61
2021/08/04 04:56:51;;;;;;;;;;;;;;;16.23;72.93;99141.72;5033791;28;19951;-61
2021/08/04 04:59:17;;;;;;;;;;;;;;;16.35;72.79;99139.47;5034482;28;19975;-61
2021/08/04 05:01:42;;;;;;;;;;;;;;;15.35;75.25;99137.84;5033697;28;19921;-61
2021/08/04 05:04:07;;;;;;;;;;;;;;;15.79;74.40;99141.72;5033369;28;20031;-61
2021/08/04 05:06:33;;;;;;;;;;;;;;;16.52;71.78;99133.63;5031974;28;19925;-61
2021/08/04 05:08:58;;;;;;;;;;;;;;;16.79;70.23;99133.13;5033799;28;19960;-61
2021/08/04 05:11:24;;;;;;;;;;;;;;;17.87;66.59;99132.72;5033724;28;19921;-61
2021/08/04 05:13:49;;;;;;;;;;;;;;;18.04;65.66;99143.03;5034553;28;19957;-61
2021/08/04 05:16:14;;;;;;;;;;;;;;;18.54;64.94;99150.69;5033395;28;19921;-61
2021/08/04 05:18:40;;;;;;;;;;;;;;;18.70;64.41;99152.03;5033541;28;19924;-61
2021/08/04 05:21:05;;;;;;;;;;;;;;;19.28;62.87;99152.66;5033276;28;19928;-61
2021/08/04 05:23:30;;;;;;;;;;;;;;;18.98;63.16;99156.75;5034186;28;20043;-61
2021/08/04 05:25:56;;;;;;;;;;;;;;;19.54;61.73;99151.00;5033270;28;19925;-61
2021/08/04 05:28:21;;;;;;;;;;;;;;;19.83;61.31;99152.63;5032280;28;20011;-61
2021/08/04 05:30:46;;;;;;;;;;;;;;;18.84;63.45;99162.16;5033172;28;19932;-62
2021/08/04 05:33:12;;;;;;;;;;;;;;;17.23;69.32;99161.94;5031645;28;20354;-61
2021/08/04 05:35:37;;;;;;;;;;;;;;;16.46;72.47;99153.72;5032447;28;19929;-61
2021/08/04 05:38:02;;;;;;;;;;;;;;;16.40;73.09;99154.84;5032877;28;19939;-61
2021/08/04 05:40:27;;;;;;;;;;;;;;;15.68;76.44;99149.06;5032984;28;19925;-61
2021/08/04 05:42:53;;;;;;;;;;;;;;;15.79;75.77;99147.94;5033231;28;20386;-61
2021/08/04 05:45:18;;;;;;;;;;;;;;;15.95;75.53;99151.38;5032721;28;20252;-60
2021/08/04 05:47:43;;;;;;;;;;;;;;;16.30;73.54;99152.19;5032916;28;19917;-61
2021/08/04 05:50:09;;;;;;;;;;;;;;;16.43;72.36;99150.78;5032613;28;19931;-61
2021/08/04 05:52:34;;;;;;;;;;;;;;;16.07;72.34;99149.09;5033274;28;19921;-61
2021/08/04 05:54:59;;;;;;;;;;;;;;;16.66;71.32;99149.22;5032926;28;20003;-61
2021/08/04 05:57:24;;;;;;;;;;;;;;;16.86;71.14;99154.47;5032544;28;20017;-61
2021/08/04 05:59:50;;;;;;;;;;;;;;;18.01;66.47;99156.38;5033093;28;19979;-61
2021/08/04 06:02:15;;;;;;;;;;;;;;;18.82;63.69;99164.34;5032687;28;19921;-61
2021/08/04 06:04:40;;;;;;;;;;;;;;;19.75;59.63;99158.78;5032779;28;20335;-61
2021/08/04 06:07:05;;;;;;;;;;;;;;;19.92;59.80;99166.28;5032440;28;19925;-61
2021/08/04 06:09:31;;;;;;;;;;;;;;;21.66;55.14;99165.44;5032777;28;19917;-61
2021/08/04 06:11:56;;;;;;;;;;;;;;;22.66;52.27;99179.34;5031183;28;19972;-61
2021/08/04 06:14:22;;;;;;;;;;;;;;;22.12;52.87;99169.53;5032827;28;19917;-60
2021/08/04 06:16:47;;;;;;;;;;;;;;;21.49;55.22;99173.59;5032544;28;19948;-61
2021/08/04 06:19:12;;;;;;;;;;;;;;;23.73;49.24;99172.88;5032839;28;20291;-61
2021/08/04 06:21:37;;;;;;;;;;;;;;;23.81;48.70;99183.00;5032452;28;19985;-61
2021/08/04 06:24:03;;;;;;;;;;;;;;;23.86;47.57;99171.84;5032951;28;19917;-60
2021/08/04 06:26:28;;;;;;;;;;;;;;;25.85;42.32;99170.13;5032572;28;19931;-61
2021/08/04 06:28:53;;;;;;;;;;;;;;;24.79;44.61;99168.16;5031430;28;19964;-59
2021/08/04 06:31:19;;;;;;;;;;;;;;;26.13;42.04;99170.16;5031121;28;20291;-59
2021/08/04 06:33:44;;;;;;;;;;;;;;;25.66;42.99;99165.22;5032839;28;19917;-61
2021/08/04 06:36:09;;;;;;;;;;;;;;;24.15;46.15;99167.44;5032587;28;19960;-60
2021/08/04 06:38:34;;;;;;;;;;;;;;;23.69;47.44;99171.94;5032857;28;19917;-61
2021/08/04 06:41:00;;;;;;;;;;;;;;;24.08;46.47;99167.97;5032562;28;19922;-61
2021/08/04 06:43:25;;;;;;;;;;;;;;;23.75;47.24;99170.63;5033208;28;19959;-60
2021/08/04 06:45:50;;;;;;;;;;;;;;;24.38;45.47;99169.81;5032514;28;19928;-60
2021/08/04 06:48:15;;;;;;;;;;;;;;;24.60;45.17;99171.44;5032434;28;19917;-59
2021/08/04 06:50:41;;;;;;;;;;;;;;;24.97;43.99;99169.59;5036514;28;20407;-60
2021/08/04 06:53:06;;;;;;;;;;;;;;;24.10;47.04;99170.38;5036494;28;19917;-59
2021/08/04 06:55:31;;;;;;;;;;;;;;;25.01;44.60;99170.53;5036289;28;19921;-60
2021/08/04 06:57:56;;;;;;;;;;;;;;;25.93;43.07;99166.44;5035503;28;20422;-60
2021/08/04 07:00:22;;;;;;;;;;;;;;;25.76;42.63;99174.88;5035961;28;19921;-60
2021/08/04 07:02:49;;;;;;;;;;;;;;;24.98;43.75;99177.47;5036151;28;20220;-60
2021/08/04 07:05:17;;;;;;;;;;;;;;;25.43;42.96;99169.53;5036371;28;20299;-60
2021/08/04 07:07:42;;;;;;;;;;;;;;;25.70;42.41;99173.53;5036869;28;19964;-60
2021/08/04 07:10:07;;;;;;;;;;;;;;;25.06;44.79;99173.03;5036307;28;19967;-61
2021/08/04 07:12:33;;;;;;;;;;;;;;;25.25;43.26;99177.19;5036512;28;19971;-60
2021/08/04 07:14:58;;;;;;;;;;;;;;;26.34;41.37;99170.00;5036138;28;19917;-59
2021/08/04 07:17:23;;;;;;;;;;;;;;;25.26;43.01;99179.63;5036091;28;19967;-59
2021/08/04 07:19:48;;;;;;;;;;;;;;;25.33;43.76;99176.28;5036077;28;19917;-59
2021/08/04 07:22:14;;;;;;;;;;;;;;;24.90;44.47;99177.56;5035567;28;20351;-59
2021/08/04 07:24:39;;;;;;;;;;;;;;;24.83;44.95;99174.56;5034667;28;20330;-59
2021/08/04 07:27:04;;;;;;;;;;;;;;;25.34;43.87;99178.69;5033995;28;19943;-59
2021/08/04 07:29:29;;;;;;;;;;;;;;;24.70;45.30;99182.75;5067782;28;19917;-59
2021/08/04 07:31:55;;;;;;;;;;;;;;;25.85;43.26;99183.84;5035341;28;19921;-60
2021/08/04 07:34:24;;;;;;;;;;;;;;;25.82;42.95;99187.25;5035605;28;19968;-59
2021/08/04 07:36:49;;;;;;;;;;;;;;;25.90;42.54;99191.03;5035169;28;19921;-59
2021/08/04 07:39:15;;;;;;;;;;;;;;;25.87;41.14;99178.00;5035770;28;19971;-59
2021/08/04 07:41:40;;;;;;;;;;;;;;;25.01;44.01;99189.72;5035318;28;20015;-61
2021/08/04 07:44:05;;;;;;;;;;;;;;;24.30;46.02;99175.03;5067216;28;20382;-61
2021/08/04 07:46:31;;;;;;;;;;;;;;;25.24;44.46;99184.63;5035000;28;20019;-61
2021/08/04 07:48:56;;;;;;;;;;;;;;;26.30;42.13;99188.31;5035802;28;19917;-61
2021/08/04 07:51:21;;;;;;;;;;;;;;;25.01;43.27;99181.50;5035142;28;19925;-61
2021/08/04 07:53:46;;;;;;;;;;;;;;;25.02;44.32;99190.50;5035416;28;19921;-61
2021/08/04 07:56:12;;;;;;;;;;;;;;;26.04;42.25;99186.00;5033649;28;20321;-61
2021/08/04 07:58:37;;;;;;;;;;;;;;;27.41;39.39;99190.50;5035392;28;19983;-62
2021/08/04 08:01:02;;;;;;;;;;;;;;;26.08;42.23;99186.09;5035228;28;19921;-61
2021/08/04 08:03:28;;;;;;;;;;;;;;;26.38;41.71;99192.84;5067206;28;19928;-60
2021/08/04 08:05:53;;;;;;;;;;;;;;;24.26;45.72;99190.56;5034725;28;19921;-60
2021/08/04 08:08:18;;;;;;;;;;;;;;;21.86;53.31;99187.81;5034951;28;19913;-60
2021/08/04 08:10:44;;;;;;;;;;;;;;;21.70;54.67;99188.25;5034711;28;19982;-60
2021/08/04 08:13:09;;;;;;;;;;;;;;;21.41;54.32;99185.28;5035016;28;20368;-60
2021/08/04 08:15:34;;;;;;;;;;;;;;;21.01;56.09;99182.50;5034489;28;20344;-60
2021/08/04 08:18:04;;;;;;;;;;;;;;;20.64;57.32;99184.53;5033605;28;19971;-60
2021/08/04 08:20:30;;;;;;;;;;;;;;;20.02;58.77;99185.94;5034678;28;19971;-59
2021/08/04 08:22:55;;;;;;;;;;;;;;;19.41;61.05;99179.00;5035011;28;19917;-60
2021/08/04 08:25:20;;;;;;;;;;;;;;;19.74;60.00;99181.63;5034385;28;20004;-60
2021/08/04 08:27:46;;;;;;;;;;;;;;;19.40;60.58;99169.25;5034977;28;19924;-60
2021/08/04 08:30:11;;;;;;;;;;;;;;;19.66;59.50;99182.34;5034498;28;19917;-60
2021/08/04 08:32:36;;;;;;;;;;;;;;;19.38;60.74;99171.47;5034740;28;20413;-60
2021/08/04 08:35:02;;;;;;;;;;;;;;;21.46;55.03;99179.69;5034181;28;19918;-60
2021/08/04 08:37:27;;;;;;;;;;;;;;;21.45;52.96;99176.16;5034468;28;19927;-60
2021/08/04 08:39:53;;;;;;;;;;;;;;;22.21;51.35;99174.22;5033329;28;19924;-59
2021/08/04 08:42:19;;;;;;;;;;;;;;;22.43;49.78;99179.53;5034293;28;19922;-59
2021/08/04 08:44:44;;;;;;;;;;;;;;;22.60;51.20;99174.03;5034402;28;19917;-59
2021/08/04 08:47:10;;;;;;;;;;;;;;;21.86;52.76;99174.16;5034045;28;19971;-59
2021/08/04 08:49:35;;;;;;;;;;;;;;;20.22;57.92;99181.16;5033072;28;19917;-59
2021/08/04 08:52:00;;;;;;;;;;;;;;;19.69;57.11;99176.31;5032782;28;19929;-60
2021/08/04 08:54:26;;;;;;;;;;;;;;;20.70;56.41;99175.13;5033880;28;19917;-60
2021/08/04 08:56:51;;;;;;;;;;;;;;;22.73;50.30;99172.25;5033737;28;19927;-59
2021/08/04 08:59:17;;;;;;;;;;;;;;;22.82;48.46;99161.31;5034089;28;19955;-60
2021/08/04 09:01:42;;;;;;;;;;;;;;;22.80;49.42;99174.50;5033573;28;19921;-60
2021/08/04 09:04:10;;;;;;;;;;;;;;;20.97;53.39;99163.28;5033802;28;19932;-60
2021/08/04 09:06:41;;;;;;;;;;;;;;;22.82;48.80;99167.56;5033249;28;20340;-59
2021/08/04 09:09:13;;;;;;;;;;;;;;;22.96;48.93;99163.84;5032573;28;19917;-60
2021/08/04 09:11:38;;;;;;;;;;;;;;;22.52;50.59;99163.94;5032851;28;19948;-60
2021/08/04 09:14:06;;;;;;;;;;;;;;;21.63;52.96;99160.66;5033661;28;19999;-59
2021/08/04 09:16:33;;;;;;;;;;;;;;;20.98;54.59;99156.69;5033362;28;19921;-60
2021/08/04 09:18:59;;;;;;;;;;;;;;;21.66;53.03;99160.00;5033780;28;20378;-60
2021/08/04 09:21:24;;;;;;;;;;;;;;;20.80;54.62;99163.97;5032105;28;19921;-60
2021/08/04 09:23:49;;;;;;;;;;;;;;;19.25;58.04;99154.06;5033567;28;19913;-60
2021/08/04 09:26:15;;;;;;;;;;;;;;;17.89;62.27;99156.81;5032933;28;19927;-59
2021/08/04 09:28:59;;;;;;;;;;;;;;;18.60;61.28;99163.06;5033252;28;20000;-59
2021/08/04 09:31:40;;;;;;;;;;;;;;;18.62;61.75;99155.44;5032953;28;19963;-59
2021/08/04 09:34:24;;;;;;;;;;;;;;;19.89;57.42;99151.41;5033345;28;19917;-59
2021/08/04 09:36:57;;;;;;;;;;;;;;;20.61;55.82;99153.28;5031540;28;19992;-60
2021/08/04 09:39:22;;;;;;;;;;;;;;;21.36;53.66;99148.03;5033440;28;19917;-60
2021/08/04 09:41:50;;;;;;;;;;;;;;;22.27;50.87;99146.47;5032855;28;20372;-59
2021/08/04 09:44:15;;;;;;;;;;;;;;;23.20;48.16;99160.56;5033273;28;20283;-59
2021/08/04 09:46:41;;;;;;;;;;;;;;;24.44;44.18;99154.81;5032821;28;19921;-60
2021/08/04 09:49:16;;;;;;;;;;;;;;;24.93;44.36;99141.25;5065279;28;20368;-60
2021/08/04 09:51:41;;;;;;;;;;;;;;;22.93;47.90;99145.38;5032740;28;19928;-60
2021/08/04 09:54:13;;;;;;;;;;;;;;;21.56;52.73;99143.13;5065216;28;19917;-61
2021/08/04 09:56:57;;;;;;;;;;;;;;;20.75;55.03;99136.88;5032640;28;19921;-60
2021/08/04 09:59:23;;;;;;;;;;;;;;;20.26;55.91;99141.31;5032958;28;19917;-59
2021/08/04 10:01:48;;;;;;;;;;;;;;;20.20;54.64;99143.34;5032548;28;20000;-60
2021/08/04 10:04:14;;;;;;;;;;;;;;;20.55;55.37;99143.63;5032725;28;19975;-60
2021/08/04 10:06:40;;;;;;;;;;;;;;;20.25;55.43;99137.00;5032422;28;19979;-60
2021/08/04 10:09:06;;;;;;;;;;;;;;;20.55;54.03;99134.66;5032946;28;19972;-60
2021/08/04 10:11:31;;;;;;;;;;;;;;;21.38;52.28;99136.81;5031140;28;20376;-60
2021/08/04 10:13:57;;;;;;;;;;;;;;;21.44;52.22;99132.84;5032812;28;20268;-60
2021/08/04 10:16:23;;;;;;;;;;;;;;;20.82;53.98;99123.63;5032398;28;20395;-60
2021/08/04 10:18:49;;;;;;;;;;;;;;;22.68;49.58;99133.38;5032844;28;19935;-60
2021/08/04 10:21:14;;;;;;;;;;;;;;;23.90;45.60;99123.50;5032552;28;20427;-60
2021/08/04 10:23:40;;;;;;;;;;;;;;;23.59;44.70;99128.53;5034990;28;20299;-60
2021/08/04 10:26:05;;;;;;;;;;;;;;;21.51;48.16;99125.00;5035082;28;20359;-60
2021/08/04 10:28:31;;;;;;;;;;;;;;;22.06;48.38;99132.59;5036850;28;20003;-60
2021/08/04 10:30:56;;;;;;;;;;;;;;;20.94;49.97;99116.75;5036465;28;19921;-59
2021/08/04 10:33:22;;;;;;;;;;;;;;;21.36;50.24;99126.22;5036725;28;19947;-59
2021/08/04 10:35:49;;;;;;;;;;;;;;;21.69;49.18;99121.22;5036205;28;19925;-59
2021/08/04 10:38:19;;;;;;;;;;;;;;;22.00;48.21;99124.91;5036758;28;19913;-60
2021/08/04 10:40:44;;;;;;;;;;;;;;;22.47;47.23;99125.09;5036546;28;19975;-61
2021/08/04 10:43:10;;;;;;;;;;;;;;;21.45;48.88;99120.84;5036393;28;19921;-59
2021/08/04 10:45:35;;;;;;;;;;;;;;;20.93;51.50;99115.97;5034098;28;19921;-61
2021/08/04 10:48:18;;;;;;;;;;;;;;;22.39;47.88;99115.78;5036439;28;19925;-61
2021/08/04 10:51:02;;;;;;;;;;;;;;;23.17;45.67;99112.81;5036035;28;19917;-59
2021/08/04 10:53:27;;;;;;;;;;;;;;;21.64;48.32;99115.06;5036311;28;19928;-62
2021/08/04 10:55:53;;;;;;;;;;;;;;;23.89;44.73;99110.16;5034865;28;19921;-60
2021/08/04 10:58:19;;;;;;;;;;;;;;;24.17;44.53;99107.66;5036202;28;19967;-61
2021/08/04 11:00:44;;;;;;;;;;;;;;;24.73;42.30;99105.34;5036357;28;19921;-61
2021/08/04 11:03:30;;;;;;;;;;;;;;;24.95;41.46;99100.59;5036281;28;20437;-61
2021/08/04 11:06:01;;;;;;;;;;;;;;;23.69;43.57;99103.53;5035283;28;20023;-61
2021/08/04 11:08:27;;;;;;;;;;;;;;;24.55;41.43;99098.47;5016386;28;19917;-61
2021/08/04 11:10:52;;;;;;;;;;;;;;;23.85;42.56;99093.59;5031212;28;20291;-60
2021/08/04 11:13:37;;;;;;;;;;;;;;;23.59;45.12;99092.97;5016770;28;20348;-65
2021/08/04 11:16:24;;;;;;;;;;;;;;;24.27;42.97;99093.56;4997091;28;19922;-61
2021/08/04 11:19:02;;;;;;;;;;;;;;;24.22;42.22;99096.50;4995505;28;19918;-60
2021/08/04 11:21:28;;;;;;;;;;;;;;;25.15;43.48;99098.88;4996531;28;20296;-61
2021/08/04 11:23:53;;;;;;;;;;;;;;;23.63;47.81;99096.63;4998843;28;19921;-60
2021/08/04 11:26:26;;;;;;;;;;;;;;;23.94;46.64;99100.94;4995185;28;19928;-60
2021/08/04 11:28:51;;;;;;;;;;;;;;;23.40;47.67;99109.81;4996622;28;19996;-60
2021/08/04 11:31:17;;;;;;;;;;;;;;;23.79;45.10;99094.13;4994828;28;19980;-60
2021/08/04 11:33:42;;;;;;;;;;;;;;;23.72;45.12;99093.84;4995483;28;20345;-60
2021/08/04 11:36:08;;;;;;;;;;;;;;;23.36;47.06;99085.03;4995057;28;19972;-60
2021/08/04 11:38:34;;;;;;;;;;;;;;;23.66;47.10;99083.09;4996408;28;20341;-60
2021/08/04 11:41:11;;;;;;;;;;;;;;;24.53;44.11;99079.63;4994619;28;19922;-60
2021/08/04 11:43:36;;;;;;;;;;;;;;;23.67;47.49;99078.44;4996408;28;19918;-60
2021/08/04 11:46:01;;;;;;;;;;;;;;;23.83;46.12;99079.44;4995761;28;20052;-60
2021/08/04 11:48:46;;;;;;;;;;;;;;;22.00;48.54;99064.88;5011366;28;19980;-60
2021/08/04 11:51:11;;;;;;;;;;;;;;;23.26;48.03;99071.75;5025198;28;19928;-60
2021/08/04 11:53:41;;;;;;;;;;;;;;;24.36;45.81;99065.28;5035506;28;19921;-60
2021/08/04 11:56:06;;;;;;;;;;;;;;;24.48;44.41;99062.59;5035032;28;19925;-60
2021/08/04 11:58:31;;;;;;;;;;;;;;;24.80;44.23;99060.16;5035360;28;19959;-60
2021/08/04 12:01:14;;;;;;;;;;;;;;;24.73;44.52;99055.22;5035140;28;19925;-61
2021/08/04 12:03:39;;;;;;;;;;;;;;;24.78;44.49;99062.44;5035648;28;19925;-61
2021/08/04 12:06:17;;;;;;;;;;;;;;;24.27;45.90;99059.91;5034979;28;19921;-61
2021/08/04 12:08:42;;;;;;;;;;;;;;;23.60;47.13;99061.75;5035143;28;19917;-60
2021/08/04 12:11:07;;;;;;;;;;;;;;;24.09;45.92;99062.03;5034551;28;19925;-60
2021/08/04 12:13:33;;;;;;;;;;;;;;;24.71;44.41;99058.31;5035092;28;19925;-61
2021/08/04 12:15:58;;;;;;;;;;;;;;;24.49;44.40;99067.75;5034715;28;19925;-60
2021/08/04 12:18:24;;;;;;;;;;;;;;;22.81;46.83;99075.00;5034803;28;19917;-60
2021/08/04 12:20:49;;;;;;;;;;;;;;;22.94;47.32;99062.25;5034455;28;19928;-60
2021/08/04 12:23:18;;;;;;;;;;;;;;;23.07;47.70;99063.19;5034850;28;20036;-60
2021/08/04 12:25:43;;;;;;;;;;;;;;;24.36;44.70;99068.03;5034423;28;20313;-60
2021/08/04 12:28:09;;;;;;;;;;;;;;;23.46;44.09;99057.34;5034908;28;20024;-60
2021/08/04 12:30:36;;;;;;;;;;;;;;;23.66;45.20;99060.41;5034400;28;19987;-61
2021/08/04 12:33:04;;;;;;;;;;;;;;;24.12;44.00;99061.34;5034662;28;19921;-60
2021/08/04 12:35:37;;;;;;;;;;;;;;;24.00;44.61;99055.81;5033830;28;19968;-60
2021/08/04 12:38:04;;;;;;;;;;;;;;;24.07;43.78;99056.88;5034360;28;19917;-61
2021/08/04 12:40:29;;;;;;;;;;;;;;;24.91;42.70;99050.31;5034005;28;19984;-60
2021/08/04 12:42:54;;;;;;;;;;;;;;;23.83;44.43;99046.59;5034667;28;19929;-60
2021/08/04 12:45:23;;;;;;;;;;;;;;;23.20;46.37;99051.22;5033214;28;19969;-60